createdAt,value
2018-06-27T00:00:42.407Z,56.64
2018-06-27T00:01:42.575Z,50.05
2018-06-27T00:02:42.773Z,44.92
2018-06-27T00:03:42.910Z,46.39
2018-06-27T00:04:43.077Z,51.76
2018-06-27T00:05:43.240Z,53.96
2018-06-27T00:06:43.424Z,52.73
2018-06-27T00:07:43.562Z,46.39
2018-06-27T00:08:43.731Z,47.36
2018-06-27T00:09:43.907Z,54.69
2018-06-27T00:10:44.076Z,68.36
2018-06-27T00:11:44.244Z,51.51
2018-06-27T00:12:44.415Z,41.02
2018-06-27T00:13:44.582Z,41.02
2018-06-27T00:14:44.757Z,49.32
2018-06-27T00:15:44.911Z,44.19
2018-06-27T00:16:45.079Z,52.49
2018-06-27T00:17:45.247Z,43.95
2018-06-27T00:18:47.327Z,43.21
2018-06-27T00:19:45.617Z,48.34
2018-06-27T00:20:45.790Z,48.83
2018-06-27T00:21:45.978Z,64.45
2018-06-27T00:22:46.141Z,65.19
2018-06-27T00:23:46.312Z,62.99
2018-06-27T00:24:46.460Z,43.70
2018-06-27T00:25:46.629Z,65.67
2018-06-27T00:26:46.797Z,64.21
2018-06-27T00:27:46.966Z,73.49
2018-06-27T00:28:47.134Z,48.10
2018-06-27T00:29:47.286Z,41.75
2018-06-27T00:30:47.470Z,54.44
2018-06-27T00:31:47.634Z,46.39
2018-06-27T00:32:47.803Z,46.63
2018-06-27T00:33:47.987Z,52.25
2018-06-27T00:34:48.138Z,43.46
2018-06-27T00:35:48.323Z,41.02
2018-06-27T00:36:48.466Z,44.68
2018-06-27T00:37:48.639Z,42.97
2018-06-27T00:38:48.807Z,51.76
2018-06-27T00:39:48.978Z,43.70
2018-06-27T00:40:49.140Z,37.60
2018-06-27T00:41:49.303Z,64.21
2018-06-27T00:42:49.466Z,44.92
2018-06-27T00:43:49.644Z,48.83
2018-06-27T00:44:49.805Z,54.20
2018-06-27T00:45:49.971Z,53.22
2018-06-27T00:46:50.204Z,54.69
2018-06-27T00:47:50.298Z,61.28
2018-06-27T00:48:50.451Z,39.06
2018-06-27T00:49:50.632Z,49.32
2018-06-27T00:50:50.793Z,42.72
2018-06-27T00:51:50.995Z,37.11
2018-06-27T00:52:51.142Z,40.77
2018-06-27T00:53:51.306Z,64.70
2018-06-27T00:54:51.476Z,64.45
2018-06-27T00:55:51.641Z,53.96
2018-06-27T00:56:51.809Z,40.53
2018-06-27T00:57:51.976Z,62.50
2018-06-27T00:58:52.150Z,47.36
2018-06-27T00:59:52.315Z,44.92
2018-06-27T01:00:52.486Z,56.15
2018-06-27T01:01:52.653Z,50.54
2018-06-27T01:02:52.821Z,42.72
2018-06-27T01:03:52.984Z,45.41
2018-06-27T01:04:53.141Z,53.47
2018-06-27T01:05:53.315Z,41.75
2018-06-27T01:06:53.480Z,41.26
2018-06-27T01:07:53.647Z,55.91
2018-06-27T01:08:53.817Z,62.50
2018-06-27T01:09:53.990Z,69.34
2018-06-27T01:10:54.159Z,46.88
2018-06-27T01:11:54.315Z,44.43
2018-06-27T01:12:54.512Z,41.26
2018-06-27T01:13:54.656Z,48.83
2018-06-27T01:14:54.840Z,49.80
2018-06-27T01:15:54.976Z,50.54
2018-06-27T01:16:55.144Z,53.47
2018-06-27T01:17:55.318Z,54.44
2018-06-27T01:18:55.529Z,58.35
2018-06-27T01:19:55.706Z,52.73
2018-06-27T01:20:55.857Z,42.97
2018-06-27T01:21:56.022Z,47.12
2018-06-27T01:22:56.204Z,48.34
2018-06-27T01:23:56.365Z,50.29
2018-06-27T01:24:56.541Z,67.38
2018-06-27T01:25:56.707Z,68.60
2018-06-27T01:26:56.876Z,42.97
2018-06-27T01:27:57.044Z,50.78
2018-06-27T01:28:57.226Z,39.79
2018-06-27T01:29:57.387Z,41.75
2018-06-27T01:30:57.521Z,41.99
2018-06-27T01:31:57.717Z,42.24
2018-06-27T01:32:57.929Z,58.35
2018-06-27T01:33:58.101Z,57.13
2018-06-27T01:34:58.270Z,43.46
2018-06-27T01:35:58.433Z,46.39
2018-06-27T01:36:58.599Z,45.17
2018-06-27T01:37:58.764Z,48.10
2018-06-27T01:38:58.932Z,45.65
2018-06-27T01:39:59.099Z,38.57
2018-06-27T01:40:59.264Z,42.72
2018-06-27T01:41:59.440Z,48.58
2018-06-27T01:42:59.599Z,47.36
2018-06-27T01:43:59.763Z,43.46
2018-06-27T01:44:59.941Z,44.19
2018-06-27T01:46:00.090Z,52.00
2018-06-27T01:47:00.254Z,51.27
2018-06-27T01:48:00.425Z,43.46
2018-06-27T01:49:00.590Z,47.12
2018-06-27T01:50:00.760Z,45.65
2018-06-27T01:51:00.933Z,44.43
2018-06-27T01:52:01.097Z,52.73
2018-06-27T01:53:01.254Z,46.14
2018-06-27T01:54:01.437Z,41.02
2018-06-27T01:55:01.592Z,40.28
2018-06-27T01:56:01.768Z,49.80
2018-06-27T01:57:01.935Z,49.80
2018-06-27T01:58:02.100Z,52.00
2018-06-27T01:59:02.273Z,50.29
2018-06-27T02:00:02.436Z,53.71
2018-06-27T02:01:02.614Z,52.73
2018-06-27T02:02:02.752Z,56.88
2018-06-27T02:03:02.933Z,52.49
2018-06-27T02:04:03.097Z,52.00
2018-06-27T02:05:03.256Z,54.20
2018-06-27T02:06:03.427Z,52.25
2018-06-27T02:07:03.601Z,52.73
2018-06-27T02:08:03.760Z,53.22
2018-06-27T02:09:03.942Z,56.40
2018-06-27T02:10:04.114Z,63.48
2018-06-27T02:11:04.276Z,64.21
2018-06-27T02:12:04.444Z,64.70
2018-06-27T02:13:04.616Z,55.42
2018-06-27T02:14:04.784Z,75.20
2018-06-27T02:15:04.940Z,54.69
2018-06-27T02:16:05.116Z,63.48
2018-06-27T02:17:05.296Z,58.35
2018-06-27T02:18:05.427Z,72.51
2018-06-27T02:19:05.626Z,64.45
2018-06-27T02:20:05.758Z,54.93
2018-06-27T02:21:05.936Z,52.25
2018-06-27T02:22:06.139Z,50.29
2018-06-27T02:23:06.196Z,64.21
2018-06-27T02:24:06.417Z,52.98
2018-06-27T02:25:06.547Z,49.80
2018-06-27T02:26:06.733Z,46.63
2018-06-27T02:27:06.899Z,46.88
2018-06-27T02:28:07.072Z,51.76
2018-06-27T02:29:07.237Z,63.48
2018-06-27T02:30:07.395Z,62.99
2018-06-27T02:31:07.552Z,50.54
2018-06-27T02:32:07.731Z,50.78
2018-06-27T02:33:07.894Z,60.06
2018-06-27T02:34:08.068Z,65.67
2018-06-27T02:35:08.221Z,65.19
2018-06-27T02:36:08.406Z,56.40
2018-06-27T02:37:08.571Z,69.58
2018-06-27T02:38:08.728Z,48.83
2018-06-27T02:39:08.905Z,60.79
2018-06-27T02:40:09.055Z,71.29
2018-06-27T02:41:09.232Z,65.19
2018-06-27T02:42:09.389Z,58.59
2018-06-27T02:43:09.560Z,58.59
2018-06-27T02:44:09.722Z,60.06
2018-06-27T02:45:09.890Z,58.11
2018-06-27T02:46:10.054Z,58.11
2018-06-27T02:47:10.229Z,58.84
2018-06-27T02:48:10.396Z,59.33
2018-06-27T02:49:10.556Z,55.18
2018-06-27T02:50:10.727Z,55.42
2018-06-27T02:51:10.888Z,56.64
2018-06-27T02:52:11.068Z,58.35
2018-06-27T02:53:11.226Z,57.86
2018-06-27T02:54:11.390Z,58.11
2018-06-27T02:55:11.551Z,57.86
2018-06-27T02:56:11.712Z,57.13
2018-06-27T02:57:11.874Z,62.99
2018-06-27T02:58:12.049Z,59.08
2018-06-27T02:59:12.220Z,56.88
2018-06-27T03:00:12.391Z,66.89
2018-06-27T03:01:12.551Z,62.01
2018-06-27T03:02:12.721Z,57.37
2018-06-27T03:03:12.888Z,56.88
2018-06-27T03:04:13.049Z,56.64
2018-06-27T03:05:13.217Z,62.50
2018-06-27T03:06:13.410Z,55.91
2018-06-27T03:07:13.553Z,60.79
2018-06-27T03:08:13.724Z,57.37
2018-06-27T03:09:13.887Z,60.79
2018-06-27T03:10:14.053Z,55.42
2018-06-27T03:11:14.219Z,59.33
2018-06-27T03:12:14.378Z,65.67
2018-06-27T03:13:14.564Z,57.13
2018-06-27T03:14:14.730Z,59.08
2018-06-27T03:15:14.893Z,59.33
2018-06-27T03:16:16.861Z,58.84
2018-06-27T03:17:15.175Z,60.55
2018-06-27T03:18:17.862Z,65.67
2018-06-27T03:19:15.577Z,64.94
2018-06-27T03:20:15.710Z,77.15
2018-06-27T03:21:15.861Z,61.28
2018-06-27T03:22:16.020Z,63.96
2018-06-27T03:23:16.186Z,61.77
2018-06-27T03:24:16.356Z,63.72
2018-06-27T03:25:16.516Z,66.41
2018-06-27T03:26:16.689Z,63.23
2018-06-27T03:27:16.858Z,65.43
2018-06-27T03:28:17.022Z,70.31
2018-06-27T03:29:17.198Z,64.70
2018-06-27T03:30:17.360Z,63.72
2018-06-27T03:31:17.535Z,65.67
2018-06-27T03:32:17.690Z,64.70
2018-06-27T03:33:17.870Z,72.27
2018-06-27T03:34:18.035Z,72.51
2018-06-27T03:35:18.203Z,69.09
2018-06-27T03:36:18.370Z,71.04
2018-06-27T03:37:18.541Z,67.63
2018-06-27T03:38:18.705Z,70.80
2018-06-27T03:39:18.875Z,71.29
2018-06-27T03:40:19.039Z,72.51
2018-06-27T03:41:19.211Z,63.48
2018-06-27T03:42:19.384Z,69.82
2018-06-27T03:43:19.544Z,65.19
2018-06-27T03:44:19.706Z,54.20
2018-06-27T03:45:19.877Z,68.12
2018-06-27T03:46:20.036Z,64.45
2018-06-27T03:47:20.211Z,69.58
2018-06-27T03:48:20.373Z,65.19
2018-06-27T03:49:20.548Z,63.72
2018-06-27T03:50:20.705Z,56.88
2018-06-27T03:51:20.871Z,57.13
2018-06-27T03:52:21.039Z,75.93
2018-06-27T03:53:21.203Z,61.28
2018-06-27T03:54:21.368Z,65.19
2018-06-27T03:55:21.527Z,60.79
2018-06-27T03:56:21.696Z,76.17
2018-06-27T03:57:21.865Z,65.67
2018-06-27T03:58:22.040Z,74.71
2018-06-27T03:59:22.198Z,70.07
2018-06-27T04:00:22.363Z,64.70
2018-06-27T04:01:22.553Z,63.48
2018-06-27T04:02:22.696Z,74.46
2018-06-27T04:03:22.867Z,85.69
2018-06-27T04:04:23.027Z,64.70
2018-06-27T04:05:23.199Z,74.46
2018-06-27T04:06:23.367Z,66.16
2018-06-27T04:07:23.536Z,65.19
2018-06-27T04:08:23.693Z,71.78
2018-06-27T04:09:23.860Z,67.63
2018-06-27T04:10:24.026Z,68.60
2018-06-27T04:11:24.205Z,61.77
2018-06-27T04:12:24.358Z,65.43
2018-06-27T04:13:24.650Z,67.63
2018-06-27T04:14:24.688Z,72.27
2018-06-27T04:15:24.839Z,68.12
2018-06-27T04:16:25.006Z,61.04
2018-06-27T04:17:25.160Z,69.82
2018-06-27T04:18:25.334Z,63.72
2018-06-27T04:19:25.495Z,64.94
2018-06-27T04:20:25.662Z,65.19
2018-06-27T04:21:25.841Z,61.77
2018-06-27T04:22:26.003Z,64.94
2018-06-27T04:23:26.165Z,74.95
2018-06-27T04:24:26.328Z,68.85
2018-06-27T04:25:34.159Z,68.85
2018-06-27T04:26:34.352Z,68.85
2018-06-27T04:27:26.896Z,65.19
2018-06-27T04:28:27.059Z,61.77
2018-06-27T04:29:27.226Z,72.51
2018-06-27T04:30:27.396Z,72.51
2018-06-27T04:31:27.563Z,71.78
2018-06-27T04:32:27.733Z,66.65
2018-06-27T04:33:27.896Z,74.46
2018-06-27T04:34:28.088Z,69.58
2018-06-27T04:35:28.223Z,70.31
2018-06-27T04:36:28.389Z,76.90
2018-06-27T04:37:28.549Z,58.35
2018-06-27T04:38:28.722Z,78.13
2018-06-27T04:39:28.888Z,71.04
2018-06-27T04:40:29.052Z,66.65
2018-06-27T04:44:11.774Z,60.79
2018-06-27T04:45:11.939Z,64.94
2018-06-27T04:46:12.106Z,71.04
2018-06-27T04:47:12.281Z,64.45
2018-06-27T04:48:12.435Z,64.94
2018-06-27T04:49:12.600Z,61.04
2018-06-27T04:50:12.764Z,62.26
2018-06-27T04:51:12.931Z,59.81
2018-06-27T04:52:13.102Z,67.14
2018-06-27T04:55:55.524Z,62.74
2018-06-27T04:56:55.690Z,64.45
2018-06-27T04:57:55.874Z,68.36
2018-06-27T04:58:56.029Z,62.99
2018-06-27T04:59:56.200Z,64.70
2018-06-27T05:00:56.363Z,75.20
2018-06-27T05:01:56.529Z,68.36
2018-06-27T05:02:56.694Z,63.48
2018-06-27T05:03:56.851Z,84.47
2018-06-27T05:04:57.021Z,65.19
2018-06-27T05:05:57.189Z,59.81
2018-06-27T05:06:57.351Z,65.67
2018-06-27T05:07:57.529Z,75.44
2018-06-27T05:08:57.693Z,61.04
2018-06-27T05:12:31.028Z,70.80
2018-06-27T05:13:30.313Z,76.90
2018-06-27T05:14:30.477Z,55.91
2018-06-27T05:15:30.642Z,65.43
2018-06-27T05:16:30.806Z,70.56
2018-06-27T05:17:30.973Z,69.09
2018-06-27T05:18:31.145Z,72.27
2018-06-27T05:19:31.311Z,74.46
2018-06-27T05:20:31.477Z,71.53
2018-06-27T05:21:31.633Z,65.67
2018-06-27T05:22:31.800Z,73.97
2018-06-27T05:23:31.977Z,67.14
2018-06-27T05:24:32.140Z,63.72
2018-06-27T05:25:32.289Z,77.88
2018-06-27T05:29:15.025Z,80.81
2018-06-27T05:30:15.195Z,89.36
2018-06-27T05:31:15.364Z,82.52
2018-06-27T05:32:15.530Z,96.92
2018-06-27T05:33:15.697Z,83.74
2018-06-27T05:34:23.805Z,81.54
2018-06-27T05:35:15.970Z,76.66
2018-06-27T05:36:16.135Z,74.95
2018-06-27T05:37:16.299Z,74.22
2018-06-27T05:38:16.465Z,74.71
2018-06-27T05:39:16.650Z,67.63
2018-06-27T05:40:16.806Z,71.78
2018-06-27T05:41:16.969Z,83.25
2018-06-27T05:42:17.137Z,68.85
2018-06-27T05:43:17.304Z,74.46
2018-06-27T05:44:17.498Z,73.00
2018-06-27T05:47:59.932Z,75.20
2018-06-27T05:49:00.094Z,68.60
2018-06-27T05:50:00.263Z,84.96
2018-06-27T05:51:00.435Z,72.75
2018-06-27T05:52:00.594Z,64.21
2018-06-27T05:53:00.762Z,66.41
2018-06-27T05:54:00.929Z,70.56
2018-06-27T05:55:01.094Z,74.22
2018-06-27T05:56:01.271Z,74.22
2018-06-27T05:59:43.708Z,85.69
2018-06-27T06:00:43.874Z,79.35
2018-06-27T06:01:44.042Z,85.21
2018-06-27T06:02:44.209Z,64.94
2018-06-27T06:03:44.382Z,72.02
2018-06-27T06:04:44.549Z,67.14
2018-06-27T06:05:44.715Z,70.07
2018-06-27T06:06:44.884Z,69.58
2018-06-27T06:07:45.050Z,82.52
2018-06-27T06:11:27.481Z,65.67
2018-06-27T06:12:27.637Z,78.13
2018-06-27T06:13:27.806Z,65.19
2018-06-27T06:14:27.969Z,81.30
2018-06-27T06:15:28.140Z,76.17
2018-06-27T06:16:28.323Z,67.14
2018-06-27T06:17:28.509Z,76.90
2018-06-27T06:18:28.693Z,66.41
2018-06-27T06:19:28.857Z,66.16
2018-06-27T06:20:29.023Z,64.70
2018-06-27T06:21:29.193Z,75.93
2018-06-27T06:22:29.358Z,62.26
2018-06-27T06:23:29.526Z,66.16
2018-06-27T06:24:29.690Z,68.12
2018-06-27T06:31:20.498Z,74.71
2018-06-27T06:32:20.682Z,71.53
2018-06-27T06:33:20.859Z,75.20
2018-06-27T06:34:21.012Z,68.85
2018-06-27T06:35:21.177Z,68.12
2018-06-27T06:36:21.333Z,71.78
2018-06-27T06:37:21.502Z,72.51
2018-06-27T06:38:21.675Z,74.95
2018-06-27T06:39:21.848Z,78.86
2018-06-27T06:43:04.278Z,71.53
2018-06-27T06:44:04.448Z,68.60
2018-06-27T06:45:04.606Z,75.93
2018-06-27T06:46:04.805Z,78.37
2018-06-27T06:47:04.930Z,66.65
2018-06-27T06:48:05.120Z,73.73
2018-06-27T06:49:05.291Z,72.27
2018-06-27T06:50:05.449Z,63.23
2018-06-27T06:51:05.612Z,68.36
2018-06-27T06:52:05.817Z,70.80
2018-06-27T06:53:05.957Z,72.51
2018-06-27T06:54:06.653Z,66.41
2018-06-27T06:55:06.324Z,72.27
2018-06-27T06:56:06.497Z,71.04
2018-06-27T06:59:49.232Z,67.14
2018-06-27T07:03:21.471Z,65.43
2018-06-27T07:04:21.654Z,69.82
2018-06-27T07:05:21.819Z,76.66
2018-06-27T07:06:21.993Z,75.20
2018-06-27T07:07:22.162Z,68.12
2018-06-27T07:08:23.034Z,69.34
2018-06-27T07:09:22.462Z,67.38
2018-06-27T07:10:22.621Z,75.68
2018-06-27T07:11:22.884Z,69.09
2018-06-27T07:12:22.964Z,71.53
2018-06-27T07:13:23.125Z,65.67
2018-06-27T07:14:23.304Z,64.45
2018-06-27T07:15:23.487Z,68.60
2018-06-27T07:16:23.651Z,65.19
2018-06-27T07:20:06.408Z,87.65
2018-06-27T07:21:06.588Z,70.56
2018-06-27T07:22:06.772Z,65.67
2018-06-27T07:23:06.950Z,73.49
2018-06-27T07:24:07.112Z,68.12
2018-06-27T07:25:15.123Z,62.99
2018-06-27T07:26:07.408Z,68.85
2018-06-27T07:27:07.589Z,79.59
2018-06-27T07:28:07.746Z,68.12
2018-06-27T07:29:07.978Z,85.21
2018-06-27T07:30:08.073Z,70.07
2018-06-27T07:31:08.272Z,74.95
2018-06-27T07:32:08.438Z,74.22
2018-06-27T07:33:08.628Z,72.27
2018-06-27T07:34:08.770Z,75.44
2018-06-27T07:35:08.941Z,89.60
2018-06-27T07:38:41.486Z,81.05
2018-06-27T07:39:41.653Z,77.88
2018-06-27T07:40:41.850Z,70.80
2018-06-27T07:41:42.017Z,67.63
2018-06-27T07:42:42.191Z,67.87
2018-06-27T07:43:42.357Z,73.97
2018-06-27T07:44:42.525Z,78.13
2018-06-27T07:45:42.689Z,74.46
2018-06-27T07:46:42.860Z,67.63
2018-06-27T07:47:43.030Z,73.00
2018-06-27T07:48:43.198Z,74.95
2018-06-27T07:49:43.390Z,69.82
2018-06-27T07:50:43.533Z,73.73
2018-06-27T07:51:43.704Z,67.63
2018-06-27T07:56:07.999Z,69.58
2018-06-27T07:57:08.261Z,74.95
2018-06-27T07:58:08.325Z,70.31
2018-06-27T07:59:15.944Z,66.65
2018-06-27T08:00:16.286Z,67.14
2018-06-27T08:01:08.835Z,74.95
2018-06-27T08:02:08.980Z,81.54
2018-06-27T08:03:09.174Z,67.14
2018-06-27T08:04:09.344Z,64.45
2018-06-27T08:05:09.504Z,74.71
2018-06-27T08:06:09.671Z,73.97
2018-06-27T08:07:09.917Z,73.00
2018-06-27T08:08:09.996Z,73.73
2018-06-27T08:09:10.183Z,72.51
2018-06-27T08:10:10.356Z,67.63
2018-06-27T08:11:10.559Z,68.12
2018-06-27T08:12:10.752Z,71.04
2018-06-27T08:13:10.912Z,71.29
2018-06-27T08:14:11.146Z,73.24
2018-06-27T08:17:53.918Z,63.48
2018-06-27T08:18:53.969Z,69.09
2018-06-27T08:19:54.149Z,69.34
2018-06-27T08:23:26.074Z,65.19
2018-06-27T08:24:26.264Z,75.68
2018-06-27T08:25:26.421Z,72.27
2018-06-27T08:26:26.806Z,67.63
2018-06-27T08:27:26.754Z,62.01
2018-06-27T08:28:34.387Z,74.22
2018-06-27T08:29:27.054Z,73.00
2018-06-27T08:30:27.226Z,73.00
2018-06-27T08:31:28.974Z,74.22
2018-06-27T08:32:27.581Z,76.42
2018-06-27T08:33:34.848Z,74.46
2018-06-27T08:34:27.914Z,82.03
2018-06-27T08:35:28.081Z,73.00
2018-06-27T08:39:00.051Z,74.95
2018-06-27T08:40:00.222Z,67.14
2018-06-27T08:41:00.392Z,73.24
2018-06-27T08:42:00.560Z,74.46
2018-06-27T08:43:00.728Z,77.88
2018-06-27T08:44:00.887Z,81.30
2018-06-27T08:45:01.891Z,72.27
2018-06-27T08:46:01.175Z,77.64
2018-06-27T08:47:01.346Z,76.90
2018-06-27T08:48:01.511Z,70.07
2018-06-27T08:49:01.679Z,77.64
2018-06-27T08:50:03.461Z,70.56
2018-06-27T08:51:02.044Z,75.93
2018-06-27T08:52:02.212Z,70.80
2018-06-27T08:55:44.954Z,75.68
2018-06-27T08:56:45.122Z,71.53
2018-06-27T08:57:53.879Z,68.85
2018-06-27T08:58:45.507Z,65.67
2018-06-27T08:59:45.661Z,65.43
2018-06-27T09:00:45.838Z,79.59
2018-06-27T09:01:46.002Z,67.14
2018-06-27T09:02:46.171Z,71.04
2018-06-27T09:03:46.336Z,81.54
2018-06-27T09:04:46.508Z,69.34
2018-06-27T09:05:46.675Z,65.19
2018-06-27T09:06:46.844Z,75.44
2018-06-27T09:07:47.053Z,70.07
2018-06-27T09:08:47.176Z,63.72
2018-06-27T09:09:47.350Z,65.19
2018-06-27T09:10:47.520Z,64.45
2018-06-27T09:11:47.682Z,71.04
2018-06-27T09:15:30.009Z,63.48
2018-06-27T09:16:29.671Z,69.09
2018-06-27T09:17:29.842Z,68.85
2018-06-27T09:18:30.053Z,66.65
2018-06-27T09:19:30.182Z,69.82
2018-06-27T09:20:30.541Z,93.75
2018-06-27T09:21:38.183Z,65.92
2018-06-27T09:22:30.708Z,70.31
2018-06-27T09:23:30.880Z,75.68
2018-06-27T09:24:33.029Z,66.65
2018-06-27T09:25:31.194Z,75.93
2018-06-27T09:26:31.366Z,66.41
2018-06-27T09:27:31.562Z,65.19
2018-06-27T09:28:31.733Z,68.12
2018-06-27T09:29:39.370Z,70.07
2018-06-27T09:30:32.061Z,72.27
2018-06-27T09:31:32.227Z,75.68
2018-06-27T09:32:32.388Z,75.44
2018-06-27T09:33:32.559Z,64.21
2018-06-27T09:34:32.730Z,64.94
2018-06-27T09:35:32.897Z,69.34
2018-06-27T09:36:33.072Z,68.85
2018-06-27T09:37:33.242Z,79.10
2018-06-27T09:38:33.402Z,76.66
2018-06-27T09:39:33.571Z,82.52
2018-06-27T09:40:33.745Z,78.86
2018-06-27T09:41:33.917Z,68.85
2018-06-27T09:42:34.111Z,72.51
2018-06-27T09:43:34.251Z,76.90
2018-06-27T09:48:45.053Z,74.46
2018-06-27T09:49:45.217Z,70.31
2018-06-27T09:50:45.399Z,72.75
2018-06-27T09:51:45.553Z,68.85
2018-06-27T09:52:54.745Z,72.51
2018-06-27T09:53:45.832Z,63.23
2018-06-27T09:54:46.004Z,73.97
2018-06-27T09:55:46.192Z,72.75
2018-06-27T09:56:46.408Z,68.36
2018-06-27T09:57:46.568Z,66.65
2018-06-27T09:58:54.684Z,68.36
2018-06-27T09:59:46.857Z,77.15
2018-06-27T10:00:47.006Z,76.42
2018-06-27T10:01:47.198Z,73.00
2018-06-27T10:02:47.360Z,73.97
2018-06-27T10:03:47.530Z,72.51
2018-06-27T10:04:47.698Z,71.78
2018-06-27T10:05:47.903Z,72.27
2018-06-27T10:06:48.241Z,65.19
2018-06-27T10:07:48.250Z,73.73
2018-06-27T10:08:49.104Z,64.94
2018-06-27T10:09:48.558Z,73.97
2018-06-27T10:10:48.676Z,72.51
2018-06-27T10:11:48.850Z,72.02
2018-06-27T10:12:49.004Z,64.70
2018-06-27T10:16:24.326Z,78.37
2018-06-27T10:17:22.685Z,65.43
2018-06-27T10:18:22.800Z,74.22
2018-06-27T10:19:22.968Z,68.36
2018-06-27T10:20:23.133Z,69.34
2018-06-27T10:21:23.299Z,74.22
2018-06-27T10:22:23.526Z,65.43
2018-06-27T10:23:23.650Z,68.60
2018-06-27T10:24:23.820Z,70.80
2018-06-27T10:25:23.986Z,81.05
2018-06-27T10:26:24.149Z,64.21
2018-06-27T10:27:24.440Z,74.22
2018-06-27T10:28:24.539Z,66.16
2018-06-27T10:29:24.694Z,62.99
2018-06-27T10:33:07.457Z,74.71
2018-06-27T10:34:07.622Z,73.49
2018-06-27T10:35:07.811Z,69.58
2018-06-27T10:36:07.979Z,69.58
2018-06-27T10:37:08.151Z,73.73
2018-06-27T10:38:08.317Z,73.73
2018-06-27T10:39:08.496Z,71.78
2018-06-27T10:40:08.654Z,76.42
2018-06-27T10:41:10.518Z,77.15
2018-06-27T10:44:51.656Z,64.21
2018-06-27T10:45:51.833Z,66.65
2018-06-27T10:46:52.008Z,69.82
2018-06-27T10:47:52.177Z,81.30
2018-06-27T10:48:52.347Z,73.00
2018-06-27T10:49:52.517Z,63.48
2018-06-27T10:50:52.686Z,69.09
2018-06-27T10:51:52.849Z,67.87
2018-06-27T10:52:53.034Z,72.75
2018-06-27T10:53:53.207Z,69.34
2018-06-27T10:54:54.077Z,66.16
2018-06-27T10:55:53.514Z,77.88
2018-06-27T10:56:53.663Z,72.51
2018-06-27T10:57:53.834Z,78.37
2018-06-27T11:01:36.527Z,74.95
2018-06-27T11:02:37.696Z,73.97
2018-06-27T11:03:36.860Z,66.16
2018-06-27T11:04:37.032Z,73.97
2018-06-27T11:05:37.200Z,69.82
2018-06-27T11:06:37.385Z,65.19
2018-06-27T11:07:37.566Z,62.26
2018-06-27T11:08:37.734Z,74.71
2018-06-27T11:09:37.900Z,64.21
2018-06-27T11:10:40.674Z,74.46
2018-06-27T11:11:38.275Z,84.47
2018-06-27T11:12:38.403Z,72.75
2018-06-27T11:13:38.558Z,72.75
2018-06-27T11:14:38.729Z,65.19
2018-06-27T11:18:21.157Z,62.50
2018-06-27T11:19:21.324Z,65.67
2018-06-27T11:20:28.973Z,65.67
2018-06-27T11:21:22.564Z,80.57
2018-06-27T11:22:29.544Z,73.97
2018-06-27T11:23:21.825Z,76.42
2018-06-27T11:24:22.579Z,73.24
2018-06-27T11:25:22.145Z,70.31
2018-06-27T11:26:22.310Z,64.94
2018-06-27T11:27:22.477Z,80.08
2018-06-27T11:28:25.566Z,66.65
2018-06-27T11:29:22.855Z,66.65
2018-06-27T11:30:23.028Z,72.02
2018-06-27T11:31:23.200Z,73.24
2018-06-27T11:32:23.368Z,65.19
2018-06-27T11:33:23.538Z,64.70
2018-06-27T11:34:23.710Z,70.80
2018-06-27T11:35:23.903Z,77.15
2018-06-27T11:36:24.060Z,75.68
2018-06-27T11:39:56.812Z,62.74
2018-06-27T11:40:56.966Z,65.67
2018-06-27T11:41:57.148Z,65.67
2018-06-27T11:42:58.301Z,86.18
2018-06-27T11:43:57.456Z,70.31
2018-06-27T11:49:40.475Z,70.80
2018-06-27T11:53:22.012Z,78.61
2018-06-27T11:54:22.124Z,81.05
2018-06-27T11:55:22.296Z,72.75
2018-06-27T11:56:22.468Z,73.73
2018-06-27T11:57:22.637Z,76.17
2018-06-27T11:58:22.807Z,68.60
2018-06-27T11:59:22.978Z,66.89
2018-06-27T12:00:23.146Z,75.68
2018-06-27T12:01:23.317Z,70.31
2018-06-27T12:05:06.069Z,66.89
2018-06-27T12:06:06.244Z,64.70
2018-06-27T12:07:06.412Z,65.67
2018-06-27T12:08:06.616Z,82.03
2018-06-27T12:09:09.619Z,70.31
2018-06-27T12:10:06.905Z,64.45
2018-06-27T12:11:07.073Z,68.12
2018-06-27T12:12:07.241Z,68.36
2018-06-27T12:13:07.412Z,73.00
2018-06-27T12:16:57.436Z,72.02
2018-06-27T12:17:50.271Z,65.19
2018-06-27T12:18:51.240Z,71.29
2018-06-27T12:19:50.647Z,63.48
2018-06-27T12:20:50.827Z,70.07
2018-06-27T12:21:50.996Z,81.30
2018-06-27T12:22:59.005Z,77.15
2018-06-27T12:23:52.262Z,78.37
2018-06-27T12:24:51.642Z,73.73
2018-06-27T12:25:51.755Z,66.65
2018-06-27T12:26:51.897Z,64.70
2018-06-27T12:27:52.088Z,78.13
2018-06-27T12:28:52.282Z,67.38
2018-06-27T12:29:52.449Z,69.82
2018-06-27T12:30:52.630Z,70.56
2018-06-27T12:31:52.788Z,73.49
2018-06-27T12:32:52.959Z,71.29
2018-06-27T12:36:37.301Z,80.32
2018-06-27T12:37:36.443Z,80.32
2018-06-27T12:38:36.635Z,68.36
2018-06-27T12:39:36.891Z,70.56
2018-06-27T12:40:37.232Z,85.45
2018-06-27T12:41:38.190Z,70.31
2018-06-27T12:42:38.266Z,68.36
2018-06-27T12:43:37.630Z,63.72
2018-06-27T12:44:37.836Z,74.22
2018-06-27T12:45:37.966Z,64.21
2018-06-27T12:46:38.143Z,67.87
2018-06-27T12:47:38.354Z,70.31
2018-06-27T12:48:38.527Z,80.08
2018-06-27T12:49:38.756Z,76.42
2018-06-27T12:53:21.386Z,72.02
2018-06-27T12:54:21.521Z,87.16
2018-06-27T12:55:21.706Z,66.16
2018-06-27T12:56:21.868Z,67.14
2018-06-27T12:57:22.034Z,77.64
2018-06-27T12:58:22.204Z,71.53
2018-06-27T12:59:30.358Z,71.04
2018-06-27T13:00:22.519Z,73.97
2018-06-27T13:01:24.446Z,74.71
2018-06-27T13:02:22.855Z,67.14
2018-06-27T13:03:23.079Z,67.38
2018-06-27T13:04:23.950Z,71.29
2018-06-27T13:05:23.375Z,62.99
2018-06-27T13:06:23.540Z,76.42
2018-06-27T13:07:23.711Z,73.49
2018-06-27T13:08:23.879Z,73.49
2018-06-27T13:09:24.047Z,71.29
2018-06-27T13:10:25.943Z,73.49
2018-06-27T13:11:24.362Z,73.49
2018-06-27T13:12:24.535Z,71.78
2018-06-27T13:13:24.701Z,79.10
2018-06-27T13:14:24.875Z,67.87
2018-06-27T13:18:07.313Z,75.20
2018-06-27T13:19:07.485Z,69.34
2018-06-27T13:22:39.718Z,76.42
2018-06-27T13:23:40.795Z,75.44
2018-06-27T13:24:40.087Z,70.80
2018-06-27T13:25:47.419Z,73.49
2018-06-27T13:26:40.445Z,72.02
2018-06-27T13:27:42.331Z,72.02
2018-06-27T13:28:40.730Z,87.65
2018-06-27T13:29:48.881Z,71.78
2018-06-27T13:30:41.038Z,70.80
2018-06-27T13:31:41.605Z,81.54
2018-06-27T13:32:41.382Z,72.02
2018-06-27T13:33:41.678Z,77.39
2018-06-27T13:34:41.780Z,71.29
2018-06-27T13:35:42.370Z,72.51
2018-06-27T13:36:41.923Z,73.49
2018-06-27T13:37:42.131Z,78.61
2018-06-27T13:38:42.328Z,82.76
2018-06-27T13:39:42.484Z,85.94
2018-06-27T13:40:51.415Z,70.80
2018-06-27T13:41:42.805Z,63.72
2018-06-27T13:42:42.996Z,74.95
2018-06-27T13:43:45.890Z,66.65
2018-06-27T13:44:43.314Z,64.70
2018-06-27T13:45:43.488Z,68.12
2018-06-27T13:46:43.676Z,74.95
2018-06-27T13:47:43.846Z,63.96
2018-06-27T13:48:44.012Z,65.92
2018-06-27T13:49:44.243Z,66.16
2018-06-27T13:50:44.369Z,75.68
2018-06-27T13:51:44.531Z,69.09
2018-06-27T13:52:44.704Z,81.05
2018-06-27T13:53:44.874Z,67.87
2018-06-27T13:54:45.036Z,75.20
2018-06-27T13:58:17.441Z,71.29
2018-06-27T13:59:17.613Z,64.94
2018-06-27T14:00:25.800Z,81.79
2018-06-27T14:01:17.955Z,74.46
2018-06-27T14:02:18.193Z,74.95
2018-06-27T14:03:20.861Z,66.41
2018-06-27T14:04:18.559Z,77.64
2018-06-27T14:05:18.709Z,67.87
2018-06-27T14:06:18.934Z,63.48
2018-06-27T14:07:19.044Z,66.65
2018-06-27T14:08:19.221Z,66.65
2018-06-27T14:09:19.393Z,73.49
2018-06-27T14:10:19.560Z,67.63
2018-06-27T14:11:19.739Z,67.38
2018-06-27T14:12:19.929Z,75.68
2018-06-27T14:13:20.154Z,69.82
2018-06-27T14:14:20.316Z,64.21
2018-06-27T14:17:59.961Z,70.80
2018-06-27T14:18:53.080Z,69.58
2018-06-27T14:19:53.164Z,66.89
2018-06-27T14:20:53.334Z,70.07
2018-06-27T14:21:53.561Z,75.93
2018-06-27T14:22:53.724Z,72.02
2018-06-27T14:23:53.903Z,70.07
2018-06-27T14:25:02.037Z,77.15
2018-06-27T14:25:55.176Z,68.85
2018-06-27T14:26:54.355Z,64.94
2018-06-27T14:27:55.533Z,68.85
2018-06-27T14:28:55.596Z,84.72
2018-06-27T14:29:54.876Z,79.10
2018-06-27T14:30:55.047Z,72.75
2018-06-27T14:31:55.206Z,68.60
2018-06-27T14:32:55.457Z,66.16
2018-06-27T14:33:55.567Z,83.98
2018-06-27T14:34:55.734Z,61.77
2018-06-27T14:38:29.051Z,78.13
2018-06-27T14:39:28.362Z,62.99
2018-06-27T14:40:28.522Z,62.99